sensor_id;sensor_type;location;lat;lon;timestamp;pressure;altitude;pressure_sealevel;temperature;humidity
48800;BME280;34611;47.964;7.982;2023-09-07T00:02:51;97036.16;;;17.82;62.90
48800;BME280;34611;47.964;7.982;2023-09-07T00:09:51;97050.16;;;17.83;62.97
48800;BME280;34611;47.964;7.982;2023-09-07T00:16:51;97039.63;;;17.83;63.01
48800;BME280;34611;47.964;7.982;2023-09-07T00:23:51;97030.91;;;17.82;62.90
48800;BME280;34611;47.964;7.982;2023-09-07T00:30:52;97036.16;;;17.82;63.10
48800;BME280;34611;47.964;7.982;2023-09-07T00:37:52;97025.63;;;17.82;63.09
48800;BME280;34611;47.964;7.982;2023-09-07T00:44:53;97024.66;;;17.83;62.91
48800;BME280;34611;47.964;7.982;2023-09-07T00:51:53;97024.81;;;17.82;63.08
48800;BME280;34611;47.964;7.982;2023-09-07T00:58:53;97024.81;;;17.82;62.97
48800;BME280;34611;47.964;7.982;2023-09-07T01:06:07;97032.72;;;17.82;63.04
48800;BME280;34611;47.964;7.982;2023-09-07T01:13:07;97022.88;;;17.84;63.06
48800;BME280;34611;47.964;7.982;2023-09-07T01:20:08;97022.19;;;17.82;62.97
48800;BME280;34611;47.964;7.982;2023-09-07T01:27:10;97016.78;;;17.83;63.07
48800;BME280;34611;47.964;7.982;2023-09-07T01:34:11;97005.44;;;17.83;63.15
48800;BME280;34611;47.964;7.982;2023-09-07T01:41:11;97003.63;;;17.83;63.12
48800;BME280;34611;47.964;7.982;2023-09-07T01:48:13;97006.25;;;17.83;62.99
48800;BME280;34611;47.964;7.982;2023-09-07T01:55:16;97000.19;;;17.83;63.10
48800;BME280;34611;47.964;7.982;2023-09-07T02:02:17;96993.28;;;17.82;63.15
48800;BME280;34611;47.964;7.982;2023-09-07T02:09:17;97003.78;;;17.82;63.06
48800;BME280;34611;47.964;7.982;2023-09-07T02:16:17;97000.19;;;17.83;63.15
48800;BME280;34611;47.964;7.982;2023-09-07T02:23:18;96993.94;;;17.84;63.05
48800;BME280;34611;47.964;7.982;2023-09-07T02:30:18;97000.84;;;17.85;63.05
48800;BME280;34611;47.964;7.982;2023-09-07T02:37:19;96997.56;;;17.83;63.08
48800;BME280;34611;47.964;7.982;2023-09-07T02:44:19;96996.59;;;17.84;63.13
48800;BME280;34611;47.964;7.982;2023-09-07T02:51:20;96984.41;;;17.83;63.16
48800;BME280;34611;47.964;7.982;2023-09-07T02:58:21;96994.94;;;17.83;63.07
48800;BME280;34611;47.964;7.982;2023-09-07T03:05:23;96984.41;;;17.83;63.01
48800;BME280;34611;47.964;7.982;2023-09-07T03:12:23;96994.94;;;17.83;63.16
48800;BME280;34611;47.964;7.982;2023-09-07T03:19:26;96981.78;;;17.83;63.15
48800;BME280;34611;47.964;7.982;2023-09-07T03:26:26;96986.06;;;17.84;63.18
48800;BME280;34611;47.964;7.982;2023-09-07T03:33:27;96984.41;;;17.83;63.18
48800;BME280;34611;47.964;7.982;2023-09-07T03:40:27;96988.69;;;17.84;63.13
48800;BME280;34611;47.964;7.982;2023-09-07T03:47:28;96986.19;;;17.82;63.26
48800;BME280;34611;47.964;7.982;2023-09-07T03:54:30;96997.41;;;17.84;63.23
48800;BME280;34611;47.964;7.982;2023-09-07T04:01:31;96990.47;;;17.83;63.22
48800;BME280;34611;47.964;7.982;2023-09-07T04:08:32;96989.66;;;17.83;63.17
48800;BME280;34611;47.964;7.982;2023-09-07T04:15:42;96999.22;;;17.84;63.16
48800;BME280;34611;47.964;7.982;2023-09-07T04:22:44;96996.59;;;17.84;63.30
48800;BME280;34611;47.964;7.982;2023-09-07T04:29:44;96991.31;;;17.84;63.06
48800;BME280;34611;47.964;7.982;2023-09-07T04:36:44;96988.69;;;17.84;63.29
48800;BME280;34611;47.964;7.982;2023-09-07T04:43:45;96991.31;;;17.84;63.25
48800;BME280;34611;47.964;7.982;2023-09-07T04:50:46;97001.00;;;17.83;63.13
48800;BME280;34611;47.964;7.982;2023-09-07T04:57:46;97001.97;;;17.82;63.25
48800;BME280;34611;47.964;7.982;2023-09-07T05:04:47;97009.72;;;17.84;63.17
48800;BME280;34611;47.964;7.982;2023-09-07T05:11:47;97007.09;;;17.84;63.24
48800;BME280;34611;47.964;7.982;2023-09-07T05:18:47;97015.00;;;17.84;63.25
48800;BME280;34611;47.964;7.982;2023-09-07T05:25:52;97022.88;;;17.84;63.30
48800;BME280;34611;47.964;7.982;2023-09-07T05:32:54;97021.06;;;17.84;63.22
48800;BME280;34611;47.964;7.982;2023-09-07T05:39:54;97022.88;;;17.84;63.15
48800;BME280;34611;47.964;7.982;2023-09-07T05:46:55;97028.13;;;17.84;63.30
48800;BME280;34611;47.964;7.982;2023-09-07T05:53:55;97028.13;;;17.84;63.17
48800;BME280;34611;47.964;7.982;2023-09-07T06:00:56;97025.50;;;17.84;63.18
48800;BME280;34611;47.964;7.982;2023-09-07T06:07:56;97024.50;;;17.85;63.36
48800;BME280;34611;47.964;7.982;2023-09-07T06:14:57;97024.66;;;17.83;63.33
48800;BME280;34611;47.964;7.982;2023-09-07T06:21:57;97019.41;;;17.83;63.31
48800;BME280;34611;47.964;7.982;2023-09-07T06:28:57;97022.03;;;17.83;63.16
48800;BME280;34611;47.964;7.982;2023-09-07T06:35:59;97022.88;;;17.84;63.31
48800;BME280;34611;47.964;7.982;2023-09-07T06:43:01;97020.25;;;17.84;63.38
48800;BME280;34611;47.964;7.982;2023-09-07T06:50:05;97028.13;;;17.84;63.18
48800;BME280;34611;47.964;7.982;2023-09-07T06:57:06;97028.94;;;17.84;63.25
48800;BME280;34611;47.964;7.982;2023-09-07T07:04:08;97027.13;;;17.85;63.28
48800;BME280;34611;47.964;7.982;2023-09-07T07:11:09;97034.22;;;17.84;63.12
48800;BME280;34611;47.964;7.982;2023-09-07T07:18:10;97033.41;;;17.84;63.30
48800;BME280;34611;47.964;7.982;2023-09-07T07:25:11;97029.75;;;17.85;63.19
48800;BME280;34611;47.964;7.982;2023-09-07T07:32:11;97039.47;;;17.84;63.28
48800;BME280;34611;47.964;7.982;2023-09-07T07:39:12;97034.22;;;17.84;63.22
48800;BME280;34611;47.964;7.982;2023-09-07T07:46:12;97039.47;;;17.84;63.30
48800;BME280;34611;47.964;7.982;2023-09-07T07:53:16;97042.09;;;17.84;63.34
48800;BME280;34611;47.964;7.982;2023-09-07T08:00:18;97036.03;;;17.84;63.39
48800;BME280;34611;47.964;7.982;2023-09-07T08:07:25;97037.81;;;17.83;63.28
48800;BME280;34611;47.964;7.982;2023-09-07T08:14:27;97043.91;;;17.84;63.32
48800;BME280;34611;47.964;7.982;2023-09-07T08:21:28;97039.47;;;17.84;63.19
48800;BME280;34611;47.964;7.982;2023-09-07T08:28:28;97043.91;;;17.84;63.32
48800;BME280;34611;47.964;7.982;2023-09-07T08:35:29;97042.91;;;17.85;63.33
48800;BME280;34611;47.964;7.982;2023-09-07T08:42:30;97042.88;;;17.93;63.32
48800;BME280;34611;47.964;7.982;2023-09-07T08:49:30;97043.91;;;17.84;63.44
48800;BME280;34611;47.964;7.982;2023-09-07T08:56:32;97036.69;;;17.86;63.43
48800;BME280;34611;47.964;7.982;2023-09-07T09:03:32;97054.09;;;17.87;63.31
48800;BME280;34611;47.964;7.982;2023-09-07T09:10:34;97048.00;;;17.86;63.35
48800;BME280;34611;47.964;7.982;2023-09-07T09:17:34;97052.47;;;17.86;63.27
48800;BME280;34611;47.964;7.982;2023-09-07T09:24:35;97050.00;;;17.84;63.42
48800;BME280;34611;47.964;7.982;2023-09-07T09:31:35;97047.19;;;17.86;63.29
48800;BME280;34611;47.964;7.982;2023-09-07T09:38:35;97045.53;;;17.85;63.34
48800;BME280;34611;47.964;7.982;2023-09-07T09:45:36;97042.75;;;17.86;63.35
48800;BME280;34611;47.964;7.982;2023-09-07T09:52:37;97034.03;;;17.86;63.34
48800;BME280;34611;47.964;7.982;2023-09-07T09:59:37;97032.41;;;17.85;63.29
48800;BME280;34611;47.964;7.982;2023-09-07T10:06:38;97020.06;;;17.85;63.38
48800;BME280;34611;47.964;7.982;2023-09-07T10:13:39;97008.72;;;17.85;63.46
48800;BME280;34611;47.964;7.982;2023-09-07T10:20:53;97007.75;;;17.86;63.39
48800;BME280;34611;47.964;7.982;2023-09-07T10:27:54;96999.88;;;17.86;63.30
48800;BME280;34611;47.964;7.982;2023-09-07T10:34:54;97009.38;;;17.87;63.39
48800;BME280;34611;47.964;7.982;2023-09-07T10:41:55;97001.47;;;17.87;63.45
48800;BME280;34611;47.964;7.982;2023-09-07T10:48:55;97001.47;;;17.87;63.41
48800;BME280;34611;47.964;7.982;2023-09-07T10:55:58;97000.69;;;17.86;63.49
48800;BME280;34611;47.964;7.982;2023-09-07T11:02:59;96988.50;;;17.85;63.36
48800;BME280;34611;47.964;7.982;2023-09-07T11:10:00;96980.44;;;17.87;63.36
48800;BME280;34611;47.964;7.982;2023-09-07T11:17:00;96985.72;;;17.87;63.43
48800;BME280;34611;47.964;7.982;2023-09-07T11:24:01;96978.81;;;17.86;63.44
48800;BME280;34611;47.964;7.982;2023-09-07T11:31:01;96974.53;;;17.85;63.42
48800;BME280;34611;47.964;7.982;2023-09-07T11:38:02;96967.47;;;17.85;63.51
48800;BME280;34611;47.964;7.982;2023-09-07T11:45:07;96968.31;;;17.86;63.52
48800;BME280;34611;47.964;7.982;2023-09-07T11:52:09;96969.94;;;17.87;63.55
48800;BME280;34611;47.964;7.982;2023-09-07T11:59:09;96964.66;;;17.87;63.34
48800;BME280;34611;47.964;7.982;2023-09-07T12:06:10;96957.78;;;17.86;63.47
48800;BME280;34611;47.964;7.982;2023-09-07T12:13:10;96962.03;;;17.87;63.48
48800;BME280;34611;47.964;7.982;2023-09-07T12:20:10;96954.16;;;17.87;63.47
48800;BME280;34611;47.964;7.982;2023-09-07T12:27:13;96951.53;;;17.87;63.40
48800;BME280;34611;47.964;7.982;2023-09-07T12:34:13;96950.16;;;17.99;63.42
48800;BME280;34611;47.964;7.982;2023-09-07T12:41:14;96937.44;;;18.34;58.17
48800;BME280;34611;47.964;7.982;2023-09-07T12:48:15;96940.19;;;18.40;56.82
48800;BME280;34611;47.964;7.982;2023-09-07T12:55:16;96945.91;;;18.44;55.91
48800;BME280;34611;47.964;7.982;2023-09-07T13:02:18;96936.69;;;18.48;55.18
48800;BME280;34611;47.964;7.982;2023-09-07T13:09:19;96937.75;;;18.54;54.61
48800;BME280;34611;47.964;7.982;2023-09-07T13:16:19;96932.31;;;18.55;54.15
48800;BME280;34611;47.964;7.982;2023-09-07T13:23:19;96924.09;;;18.58;53.74
48800;BME280;34611;47.964;7.982;2023-09-07T13:30:19;96919.09;;;18.64;53.29
48800;BME280;34611;47.964;7.982;2023-09-07T13:37:20;96907.75;;;18.63;53.04
48800;BME280;34611;47.964;7.982;2023-09-07T13:44:20;96912.66;;;18.66;52.58
48800;BME280;34611;47.964;7.982;2023-09-07T13:51:20;96916.78;;;18.69;52.26
48800;BME280;34611;47.964;7.982;2023-09-07T13:58:20;96917.38;;;18.71;52.02
48800;BME280;34611;47.964;7.982;2023-09-07T14:05:21;96908.38;;;18.27;55.48
48800;BME280;34611;47.964;7.982;2023-09-07T14:12:21;96910.22;;;18.18;56.25
48800;BME280;34611;47.964;7.982;2023-09-07T14:19:22;96900.88;;;18.16;56.76
48800;BME280;34611;47.964;7.982;2023-09-07T14:26:22;96909.94;;;18.13;57.37
48800;BME280;34611;47.964;7.982;2023-09-07T14:33:22;96909.31;;;18.11;57.76
48800;BME280;34611;47.964;7.982;2023-09-07T14:40:23;96915.72;;;18.09;58.02
48800;BME280;34611;47.964;7.982;2023-09-07T14:47:24;96913.09;;;18.09;58.22
48800;BME280;34611;47.964;7.982;2023-09-07T14:54:26;96922.97;;;18.07;58.55
48800;BME280;34611;47.964;7.982;2023-09-07T15:01:26;96904.72;;;18.05;58.73
48800;BME280;34611;47.964;7.982;2023-09-07T15:08:26;96908.00;;;18.07;58.66
48800;BME280;34611;47.964;7.982;2023-09-07T15:15:27;96906.34;;;18.06;58.83
48800;BME280;34611;47.964;7.982;2023-09-07T15:22:27;96903.56;;;18.08;58.96
48800;BME280;34611;47.964;7.982;2023-09-07T15:29:27;96904.56;;;18.07;59.01
48800;BME280;34611;47.964;7.982;2023-09-07T15:36:27;96901.28;;;18.05;59.22
48800;BME280;34611;47.964;7.982;2023-09-07T15:43:28;96896.69;;;18.07;59.16
48800;BME280;34611;47.964;7.982;2023-09-07T15:50:28;96901.28;;;18.05;59.35
48800;BME280;34611;47.964;7.982;2023-09-07T15:57:28;96902.28;;;18.04;59.59
48800;BME280;34611;47.964;7.982;2023-09-07T16:04:29;96911.97;;;18.03;59.56
48800;BME280;34611;47.964;7.982;2023-09-07T16:11:30;96905.91;;;18.03;59.71
48800;BME280;34611;47.964;7.982;2023-09-07T16:18:30;96905.09;;;18.02;59.67
48800;BME280;34611;47.964;7.982;2023-09-07T16:25:30;96903.44;;;18.01;59.86
48800;BME280;34611;47.964;7.982;2023-09-07T16:32:30;96900.81;;;18.01;59.86
48800;BME280;34611;47.964;7.982;2023-09-07T16:39:31;96903.44;;;18.01;59.99
48800;BME280;34611;47.964;7.982;2023-09-07T16:46:33;96905.25;;;18.00;59.96
48800;BME280;34611;47.964;7.982;2023-09-07T16:53:33;96914.97;;;18.00;60.07
48800;BME280;34611;47.964;7.982;2023-09-07T17:00:34;96912.34;;;18.00;60.12
48800;BME280;34611;47.964;7.982;2023-09-07T17:07:34;96908.69;;;18.01;60.17
48800;BME280;34611;47.964;7.982;2023-09-07T17:14:35;96914.97;;;18.00;60.18
48800;BME280;34611;47.964;7.982;2023-09-07T17:21:35;96915.94;;;17.99;60.27
48800;BME280;34611;47.964;7.982;2023-09-07T17:28:35;96920.41;;;17.98;60.21
48800;BME280;34611;47.964;7.982;2023-09-07T17:35:36;96926.47;;;17.99;60.15
48800;BME280;34611;47.964;7.982;2023-09-07T17:42:36;96934.38;;;17.99;60.36
48800;BME280;34611;47.964;7.982;2023-09-07T17:49:37;96933.56;;;17.98;60.34
48800;BME280;34611;47.964;7.982;2023-09-07T17:56:37;96940.63;;;17.98;60.42
48800;BME280;34611;47.964;7.982;2023-09-07T18:03:37;96955.88;;;18.03;60.41
48800;BME280;34611;47.964;7.982;2023-09-07T18:10:37;96946.53;;;18.00;60.38
48800;BME280;34611;47.964;7.982;2023-09-07T18:17:38;96951.16;;;17.98;60.60
48800;BME280;34611;47.964;7.982;2023-09-07T18:24:40;96964.09;;;17.99;60.52
48800;BME280;34611;47.964;7.982;2023-09-07T18:31:40;96972.84;;;18.00;60.67
48800;BME280;34611;47.964;7.982;2023-09-07T18:38:41;96979.03;;;18.07;60.58
48800;BME280;34611;47.964;7.982;2023-09-07T18:45:41;96975.47;;;18.00;60.67
48800;BME280;34611;47.964;7.982;2023-09-07T18:52:41;96973.81;;;17.99;60.76
48800;BME280;34611;47.964;7.982;2023-09-07T18:59:42;96971.19;;;17.99;60.83
48800;BME280;34611;47.964;7.982;2023-09-07T19:06:42;96974.81;;;17.98;60.86
48800;BME280;34611;47.964;7.982;2023-09-07T19:13:42;96966.94;;;17.98;60.89
48800;BME280;34611;47.964;7.982;2023-09-07T19:20:43;96966.94;;;17.98;60.95
48800;BME280;34611;47.964;7.982;2023-09-07T19:27:43;96967.75;;;17.98;60.86
48800;BME280;34611;47.964;7.982;2023-09-07T19:34:44;96973.81;;;17.99;61.02
48800;BME280;34611;47.964;7.982;2023-09-07T19:41:44;96967.75;;;17.98;60.97
48800;BME280;34611;47.964;7.982;2023-09-07T19:48:48;96973.81;;;17.99;61.01
48800;BME280;34611;47.964;7.982;2023-09-07T19:55:48;96980.09;;;17.98;61.08
48800;BME280;34611;47.964;7.982;2023-09-07T20:02:49;96983.53;;;17.98;60.96
48800;BME280;34611;47.964;7.982;2023-09-07T20:09:49;96982.72;;;17.98;61.00
48800;BME280;34611;47.964;7.982;2023-09-07T20:16:49;96987.13;;;17.97;61.16
48800;BME280;34611;47.964;7.982;2023-09-07T20:23:50;96985.34;;;17.98;61.11
48800;BME280;34611;47.964;7.982;2023-09-07T20:30:50;96981.06;;;17.97;61.00
48800;BME280;34611;47.964;7.982;2023-09-07T20:37:50;96983.69;;;17.97;61.17
48800;BME280;34611;47.964;7.982;2023-09-07T20:44:51;96982.72;;;17.98;61.22
48800;BME280;34611;47.964;7.982;2023-09-07T20:51:51;96976.59;;;17.97;61.11
48800;BME280;34611;47.964;7.982;2023-09-07T20:58:51;96983.53;;;17.98;61.25
48800;BME280;34611;47.964;7.982;2023-09-07T21:05:51;96984.50;;;17.97;61.20
48800;BME280;34611;47.964;7.982;2023-09-07T21:12:52;96974.81;;;17.98;61.25
48800;BME280;34611;47.964;7.982;2023-09-07T21:19:52;96975.63;;;17.98;61.30
48800;BME280;34611;47.964;7.982;2023-09-07T21:26:53;96979.25;;;17.97;61.32
48800;BME280;34611;47.964;7.982;2023-09-07T21:33:54;96981.88;;;17.97;61.23
48800;BME280;34611;47.964;7.982;2023-09-07T21:40:54;96992.41;;;17.97;61.21
48800;BME280;34611;47.964;7.982;2023-09-07T21:47:55;96977.44;;;17.98;61.40
48800;BME280;34611;47.964;7.982;2023-09-07T21:54:55;96981.06;;;17.97;61.41
48800;BME280;34611;47.964;7.982;2023-09-07T22:01:55;96978.25;;;17.98;61.41
48800;BME280;34611;47.964;7.982;2023-09-07T22:08:56;96973.16;;;17.97;61.38
48800;BME280;34611;47.964;7.982;2023-09-07T22:15:56;96972.34;;;17.96;61.39
48800;BME280;34611;47.964;7.982;2023-09-07T22:22:56;96977.44;;;17.98;61.34
48800;BME280;34611;47.964;7.982;2023-09-07T22:29:57;96976.59;;;17.97;61.38
48800;BME280;34611;47.964;7.982;2023-09-07T22:36:58;96971.34;;;17.97;61.55
48800;BME280;34611;47.964;7.982;2023-09-07T22:43:59;96971.34;;;17.97;61.48
48800;BME280;34611;47.964;7.982;2023-09-07T22:50:59;96971.34;;;17.97;61.52
48800;BME280;34611;47.964;7.982;2023-09-07T22:58:00;96967.09;;;17.96;61.43
48800;BME280;34611;47.964;7.982;2023-09-07T23:05:00;96967.91;;;17.97;61.55
48800;BME280;34611;47.964;7.982;2023-09-07T23:12:00;96970.53;;;17.97;61.59
48800;BME280;34611;47.964;7.982;2023-09-07T23:19:01;96970.53;;;17.97;61.57
48800;BME280;34611;47.964;7.982;2023-09-07T23:26:01;96967.91;;;17.97;61.44
48800;BME280;34611;47.964;7.982;2023-09-07T23:33:01;96966.09;;;17.97;61.65
48800;BME280;34611;47.964;7.982;2023-09-07T23:40:02;96968.91;;;17.96;61.56
48800;BME280;34611;47.964;7.982;2023-09-07T23:47:08;96970.53;;;17.97;61.61
48800;BME280;34611;47.964;7.982;2023-09-07T23:54:08;96976.59;;;17.97;61.66
